sensor_id;sensor_type;location;lat;lon;timestamp;P1;durP1;ratioP1;P2;durP2;ratioP2
41653;SDS011;30790;52.030;7.110;2023-03-05T00:01:18;3.33;;;1.50;;
41653;SDS011;30790;52.030;7.110;2023-03-05T00:03:49;3.83;;;1.63;;
41653;SDS011;30790;52.030;7.110;2023-03-05T00:06:16;3.03;;;1.52;;
41653;SDS011;30790;52.030;7.110;2023-03-05T00:08:42;6.72;;;2.17;;
41653;SDS011;30790;52.030;7.110;2023-03-05T00:11:09;5.85;;;1.58;;
41653;SDS011;30790;52.030;7.110;2023-03-05T00:13:36;2.83;;;1.40;;
41653;SDS011;30790;52.030;7.110;2023-03-05T00:16:02;4.20;;;1.30;;
41653;SDS011;30790;52.030;7.110;2023-03-05T00:18:33;2.22;;;1.27;;
41653;SDS011;30790;52.030;7.110;2023-03-05T00:20:58;4.75;;;1.30;;
41653;SDS011;30790;52.030;7.110;2023-03-05T00:23:24;6.50;;;1.35;;
41653;SDS011;30790;52.030;7.110;2023-03-05T00:25:49;4.20;;;1.23;;
41653;SDS011;30790;52.030;7.110;2023-03-05T00:28:14;4.25;;;1.20;;
41653;SDS011;30790;52.030;7.110;2023-03-05T00:30:40;4.93;;;1.35;;
41653;SDS011;30790;52.030;7.110;2023-03-05T00:33:05;4.43;;;1.30;;
41653;SDS011;30790;52.030;7.110;2023-03-05T00:35:31;4.78;;;1.35;;
41653;SDS011;30790;52.030;7.110;2023-03-05T00:37:56;2.05;;;1.00;;
41653;SDS011;30790;52.030;7.110;2023-03-05T00:40:22;3.10;;;1.02;;
41653;SDS011;30790;52.030;7.110;2023-03-05T00:42:47;3.00;;;1.60;;
41653;SDS011;30790;52.030;7.110;2023-03-05T00:45:12;2.95;;;1.17;;
41653;SDS011;30790;52.030;7.110;2023-03-05T00:47:38;4.53;;;1.63;;
41653;SDS011;30790;52.030;7.110;2023-03-05T00:50:05;2.05;;;1.48;;
41653;SDS011;30790;52.030;7.110;2023-03-05T00:52:31;1.90;;;1.15;;
41653;SDS011;30790;52.030;7.110;2023-03-05T00:54:56;4.57;;;1.33;;
41653;SDS011;30790;52.030;7.110;2023-03-05T00:57:21;3.25;;;1.02;;
41653;SDS011;30790;52.030;7.110;2023-03-05T00:59:47;4.47;;;1.45;;
41653;SDS011;30790;52.030;7.110;2023-03-05T01:02:12;3.42;;;1.38;;
41653;SDS011;30790;52.030;7.110;2023-03-05T01:04:37;2.63;;;1.30;;
41653;SDS011;30790;52.030;7.110;2023-03-05T01:07:03;3.75;;;1.38;;
41653;SDS011;30790;52.030;7.110;2023-03-05T01:09:28;2.92;;;1.20;;
41653;SDS011;30790;52.030;7.110;2023-03-05T01:11:54;1.63;;;1.23;;
41653;SDS011;30790;52.030;7.110;2023-03-05T01:14:20;2.58;;;1.30;;
41653;SDS011;30790;52.030;7.110;2023-03-05T01:16:46;3.17;;;1.58;;
41653;SDS011;30790;52.030;7.110;2023-03-05T01:19:11;3.35;;;1.20;;
41653;SDS011;30790;52.030;7.110;2023-03-05T01:21:37;2.67;;;1.17;;
41653;SDS011;30790;52.030;7.110;2023-03-05T01:24:03;2.55;;;1.10;;
41653;SDS011;30790;52.030;7.110;2023-03-05T01:26:29;4.78;;;1.50;;
41653;SDS011;30790;52.030;7.110;2023-03-05T01:28:55;2.20;;;1.10;;
41653;SDS011;30790;52.030;7.110;2023-03-05T01:31:20;4.13;;;1.23;;
41653;SDS011;30790;52.030;7.110;2023-03-05T01:33:46;2.70;;;1.30;;
41653;SDS011;30790;52.030;7.110;2023-03-05T01:36:13;3.75;;;1.60;;
41653;SDS011;30790;52.030;7.110;2023-03-05T01:38:43;4.28;;;1.13;;
41653;SDS011;30790;52.030;7.110;2023-03-05T01:41:11;1.95;;;1.13;;
41653;SDS011;30790;52.030;7.110;2023-03-05T01:43:37;2.88;;;1.10;;
41653;SDS011;30790;52.030;7.110;2023-03-05T01:48:51;2.22;;;1.25;;
41653;SDS011;30790;52.030;7.110;2023-03-05T01:53:49;3.00;;;0.98;;
41653;SDS011;30790;52.030;7.110;2023-03-05T01:56:15;1.55;;;1.05;;
41653;SDS011;30790;52.030;7.110;2023-03-05T01:58:41;2.83;;;1.42;;
41653;SDS011;30790;52.030;7.110;2023-03-05T02:01:07;2.40;;;1.30;;
41653;SDS011;30790;52.030;7.110;2023-03-05T02:03:33;2.40;;;1.13;;
41653;SDS011;30790;52.030;7.110;2023-03-05T02:05:59;2.08;;;0.95;;
41653;SDS011;30790;52.030;7.110;2023-03-05T02:08:25;2.23;;;1.07;;
41653;SDS011;30790;52.030;7.110;2023-03-05T02:10:51;4.22;;;1.08;;
41653;SDS011;30790;52.030;7.110;2023-03-05T02:13:21;4.35;;;1.08;;
41653;SDS011;30790;52.030;7.110;2023-03-05T02:15:48;3.63;;;1.10;;
41653;SDS011;30790;52.030;7.110;2023-03-05T02:18:14;1.90;;;1.00;;
41653;SDS011;30790;52.030;7.110;2023-03-05T02:20:51;2.08;;;1.08;;
41653;SDS011;30790;52.030;7.110;2023-03-05T02:23:20;2.67;;;1.23;;
41653;SDS011;30790;52.030;7.110;2023-03-05T02:25:46;2.83;;;1.17;;
41653;SDS011;30790;52.030;7.110;2023-03-05T02:28:55;2.03;;;1.25;;
41653;SDS011;30790;52.030;7.110;2023-03-05T02:31:07;3.10;;;1.00;;
41653;SDS011;30790;52.030;7.110;2023-03-05T02:33:36;4.45;;;1.38;;
41653;SDS011;30790;52.030;7.110;2023-03-05T02:36:01;2.95;;;1.40;;
41653;SDS011;30790;52.030;7.110;2023-03-05T02:38:26;3.42;;;1.25;;
41653;SDS011;30790;52.030;7.110;2023-03-05T02:40:52;3.40;;;1.10;;
41653;SDS011;30790;52.030;7.110;2023-03-05T02:43:17;2.42;;;1.33;;
41653;SDS011;30790;52.030;7.110;2023-03-05T02:45:42;1.65;;;1.10;;
41653;SDS011;30790;52.030;7.110;2023-03-05T02:48:07;2.05;;;1.15;;
41653;SDS011;30790;52.030;7.110;2023-03-05T02:50:33;3.45;;;1.15;;
41653;SDS011;30790;52.030;7.110;2023-03-05T02:52:59;3.00;;;1.20;;
41653;SDS011;30790;52.030;7.110;2023-03-05T02:55:24;2.67;;;1.20;;
41653;SDS011;30790;52.030;7.110;2023-03-05T02:57:49;1.70;;;1.08;;
41653;SDS011;30790;52.030;7.110;2023-03-05T03:00:15;4.22;;;1.30;;
41653;SDS011;30790;52.030;7.110;2023-03-05T03:02:41;4.20;;;1.58;;
41653;SDS011;30790;52.030;7.110;2023-03-05T03:05:06;1.77;;;0.93;;
41653;SDS011;30790;52.030;7.110;2023-03-05T03:07:32;3.55;;;1.30;;
41653;SDS011;30790;52.030;7.110;2023-03-05T03:09:59;2.10;;;0.80;;
41653;SDS011;30790;52.030;7.110;2023-03-05T03:12:25;1.90;;;1.02;;
41653;SDS011;30790;52.030;7.110;2023-03-05T03:14:50;3.63;;;1.35;;
41653;SDS011;30790;52.030;7.110;2023-03-05T03:17:16;3.22;;;1.00;;
41653;SDS011;30790;52.030;7.110;2023-03-05T03:19:43;2.38;;;1.10;;
41653;SDS011;30790;52.030;7.110;2023-03-05T03:22:09;1.23;;;1.00;;
41653;SDS011;30790;52.030;7.110;2023-03-05T03:24:36;1.95;;;0.82;;
41653;SDS011;30790;52.030;7.110;2023-03-05T03:27:03;2.03;;;0.98;;
41653;SDS011;30790;52.030;7.110;2023-03-05T03:29:29;2.63;;;1.10;;
41653;SDS011;30790;52.030;7.110;2023-03-05T03:31:54;3.08;;;1.23;;
41653;SDS011;30790;52.030;7.110;2023-03-05T03:34:20;2.45;;;1.00;;
41653;SDS011;30790;52.030;7.110;2023-03-05T03:36:46;2.47;;;1.00;;
41653;SDS011;30790;52.030;7.110;2023-03-05T03:39:12;4.60;;;1.13;;
41653;SDS011;30790;52.030;7.110;2023-03-05T03:41:43;1.98;;;0.82;;
41653;SDS011;30790;52.030;7.110;2023-03-05T03:44:09;2.58;;;0.98;;
41653;SDS011;30790;52.030;7.110;2023-03-05T03:46:36;2.88;;;1.20;;
41653;SDS011;30790;52.030;7.110;2023-03-05T03:49:03;1.50;;;0.85;;
41653;SDS011;30790;52.030;7.110;2023-03-05T03:51:29;1.88;;;1.00;;
41653;SDS011;30790;52.030;7.110;2023-03-05T03:53:55;1.73;;;0.98;;
41653;SDS011;30790;52.030;7.110;2023-03-05T03:56:20;2.80;;;1.13;;
41653;SDS011;30790;52.030;7.110;2023-03-05T03:58:45;1.85;;;0.90;;
41653;SDS011;30790;52.030;7.110;2023-03-05T04:01:14;1.05;;;0.90;;
41653;SDS011;30790;52.030;7.110;2023-03-05T04:03:40;4.40;;;1.00;;
41653;SDS011;30790;52.030;7.110;2023-03-05T04:06:05;1.75;;;0.77;;
41653;SDS011;30790;52.030;7.110;2023-03-05T04:08:31;2.05;;;0.95;;
41653;SDS011;30790;52.030;7.110;2023-03-05T04:10:56;1.58;;;0.90;;
41653;SDS011;30790;52.030;7.110;2023-03-05T04:13:21;1.65;;;1.15;;
41653;SDS011;30790;52.030;7.110;2023-03-05T04:15:47;2.42;;;0.93;;
41653;SDS011;30790;52.030;7.110;2023-03-05T04:18:12;0.60;;;0.60;;
41653;SDS011;30790;52.030;7.110;2023-03-05T04:20:37;3.15;;;1.05;;
41653;SDS011;30790;52.030;7.110;2023-03-05T04:23:02;1.05;;;0.60;;
41653;SDS011;30790;52.030;7.110;2023-03-05T04:25:28;1.23;;;0.80;;
41653;SDS011;30790;52.030;7.110;2023-03-05T04:27:53;0.77;;;0.70;;
41653;SDS011;30790;52.030;7.110;2023-03-05T04:30:18;2.22;;;1.00;;
41653;SDS011;30790;52.030;7.110;2023-03-05T04:32:44;3.40;;;1.10;;
41653;SDS011;30790;52.030;7.110;2023-03-05T04:35:09;1.33;;;1.00;;
41653;SDS011;30790;52.030;7.110;2023-03-05T04:37:34;1.85;;;1.00;;
41653;SDS011;30790;52.030;7.110;2023-03-05T04:40:00;1.95;;;1.08;;
41653;SDS011;30790;52.030;7.110;2023-03-05T04:42:25;2.15;;;1.10;;
41653;SDS011;30790;52.030;7.110;2023-03-05T04:44:50;1.08;;;0.65;;
41653;SDS011;30790;52.030;7.110;2023-03-05T04:47:17;2.17;;;0.70;;
41653;SDS011;30790;52.030;7.110;2023-03-05T04:49:42;1.50;;;0.70;;
41653;SDS011;30790;52.030;7.110;2023-03-05T04:52:09;1.23;;;0.77;;
41653;SDS011;30790;52.030;7.110;2023-03-05T04:54:36;2.00;;;1.20;;
41653;SDS011;30790;52.030;7.110;2023-03-05T04:57:01;1.23;;;0.93;;
41653;SDS011;30790;52.030;7.110;2023-03-05T04:59:27;2.03;;;1.10;;
41653;SDS011;30790;52.030;7.110;2023-03-05T05:01:52;1.58;;;0.90;;
41653;SDS011;30790;52.030;7.110;2023-03-05T05:04:18;0.90;;;0.70;;
41653;SDS011;30790;52.030;7.110;2023-03-05T05:06:43;1.10;;;0.60;;
41653;SDS011;30790;52.030;7.110;2023-03-05T05:09:08;2.60;;;1.02;;
41653;SDS011;30790;52.030;7.110;2023-03-05T05:11:33;1.33;;;0.93;;
41653;SDS011;30790;52.030;7.110;2023-03-05T05:13:59;0.90;;;0.73;;
41653;SDS011;30790;52.030;7.110;2023-03-05T05:16:24;1.45;;;0.70;;
41653;SDS011;30790;52.030;7.110;2023-03-05T05:18:49;2.30;;;1.13;;
41653;SDS011;30790;52.030;7.110;2023-03-05T05:21:14;1.75;;;0.90;;
41653;SDS011;30790;52.030;7.110;2023-03-05T05:23:42;1.73;;;1.00;;
41653;SDS011;30790;52.030;7.110;2023-03-05T05:26:07;0.57;;;0.47;;
41653;SDS011;30790;52.030;7.110;2023-03-05T05:28:33;1.35;;;0.70;;
41653;SDS011;30790;52.030;7.110;2023-03-05T05:30:59;1.77;;;0.70;;
41653;SDS011;30790;52.030;7.110;2023-03-05T05:33:25;1.77;;;0.90;;
41653;SDS011;30790;52.030;7.110;2023-03-05T05:35:51;1.25;;;0.68;;
41653;SDS011;30790;52.030;7.110;2023-03-05T05:38:16;1.42;;;0.80;;
41653;SDS011;30790;52.030;7.110;2023-03-05T05:40:42;0.80;;;0.73;;
41653;SDS011;30790;52.030;7.110;2023-03-05T05:43:07;1.40;;;0.95;;
41653;SDS011;30790;52.030;7.110;2023-03-05T05:45:33;1.25;;;0.60;;
41653;SDS011;30790;52.030;7.110;2023-03-05T05:47:58;1.58;;;0.80;;
41653;SDS011;30790;52.030;7.110;2023-03-05T05:50:24;1.05;;;0.57;;
41653;SDS011;30790;52.030;7.110;2023-03-05T05:52:49;1.15;;;0.70;;
41653;SDS011;30790;52.030;7.110;2023-03-05T05:55:16;1.58;;;1.00;;
41653;SDS011;30790;52.030;7.110;2023-03-05T05:57:41;2.33;;;0.70;;
41653;SDS011;30790;52.030;7.110;2023-03-05T06:00:07;0.90;;;0.60;;
41653;SDS011;30790;52.030;7.110;2023-03-05T06:02:36;1.10;;;0.75;;
41653;SDS011;30790;52.030;7.110;2023-03-05T06:05:06;1.02;;;0.65;;
41653;SDS011;30790;52.030;7.110;2023-03-05T06:07:33;1.27;;;0.70;;
41653;SDS011;30790;52.030;7.110;2023-03-05T06:09:59;1.50;;;0.77;;
41653;SDS011;30790;52.030;7.110;2023-03-05T06:12:24;1.27;;;0.60;;
41653;SDS011;30790;52.030;7.110;2023-03-05T06:14:50;0.63;;;0.55;;
41653;SDS011;30790;52.030;7.110;2023-03-05T06:17:15;1.05;;;0.70;;
41653;SDS011;30790;52.030;7.110;2023-03-05T06:19:40;2.17;;;1.00;;
41653;SDS011;30790;52.030;7.110;2023-03-05T06:22:06;2.97;;;0.90;;
41653;SDS011;30790;52.030;7.110;2023-03-05T06:24:31;0.88;;;0.60;;
41653;SDS011;30790;52.030;7.110;2023-03-05T06:26:56;1.73;;;0.90;;
41653;SDS011;30790;52.030;7.110;2023-03-05T06:29:22;1.77;;;0.90;;
41653;SDS011;30790;52.030;7.110;2023-03-05T06:31:47;1.50;;;0.73;;
41653;SDS011;30790;52.030;7.110;2023-03-05T06:34:12;1.95;;;0.75;;
41653;SDS011;30790;52.030;7.110;2023-03-05T06:36:38;1.98;;;0.85;;
41653;SDS011;30790;52.030;7.110;2023-03-05T06:39:04;1.75;;;0.75;;
41653;SDS011;30790;52.030;7.110;2023-03-05T06:41:30;0.68;;;0.55;;
41653;SDS011;30790;52.030;7.110;2023-03-05T06:43:55;1.58;;;0.65;;
41653;SDS011;30790;52.030;7.110;2023-03-05T06:46:23;0.95;;;0.52;;
41653;SDS011;30790;52.030;7.110;2023-03-05T06:48:50;2.40;;;0.85;;
41653;SDS011;30790;52.030;7.110;2023-03-05T06:51:17;1.45;;;0.60;;
41653;SDS011;30790;52.030;7.110;2023-03-05T06:53:46;1.88;;;0.80;;
41653;SDS011;30790;52.030;7.110;2023-03-05T06:56:12;1.83;;;0.70;;
41653;SDS011;30790;52.030;7.110;2023-03-05T06:58:38;1.08;;;0.68;;
41653;SDS011;30790;52.030;7.110;2023-03-05T07:01:04;4.38;;;1.08;;
41653;SDS011;30790;52.030;7.110;2023-03-05T07:03:31;5.25;;;1.13;;
41653;SDS011;30790;52.030;7.110;2023-03-05T07:05:57;7.95;;;1.17;;
41653;SDS011;30790;52.030;7.110;2023-03-05T07:08:22;4.10;;;1.05;;
41653;SDS011;30790;52.030;7.110;2023-03-05T07:10:48;6.90;;;1.02;;
41653;SDS011;30790;52.030;7.110;2023-03-05T07:13:13;6.07;;;1.10;;
41653;SDS011;30790;52.030;7.110;2023-03-05T07:15:38;6.05;;;0.95;;
41653;SDS011;30790;52.030;7.110;2023-03-05T07:21:19;6.07;;;1.20;;
41653;SDS011;30790;52.030;7.110;2023-03-05T07:23:46;5.15;;;0.90;;
41653;SDS011;30790;52.030;7.110;2023-03-05T07:26:12;4.57;;;1.48;;
41653;SDS011;30790;52.030;7.110;2023-03-05T07:28:38;6.10;;;1.25;;
41653;SDS011;30790;52.030;7.110;2023-03-05T07:31:05;5.30;;;0.73;;
41653;SDS011;30790;52.030;7.110;2023-03-05T07:33:32;6.40;;;1.10;;
41653;SDS011;30790;52.030;7.110;2023-03-05T07:35:59;3.22;;;0.65;;
41653;SDS011;30790;52.030;7.110;2023-03-05T07:38:25;5.85;;;0.80;;
41653;SDS011;30790;52.030;7.110;2023-03-05T07:40:51;2.95;;;0.77;;
41653;SDS011;30790;52.030;7.110;2023-03-05T07:43:17;2.70;;;0.85;;
41653;SDS011;30790;52.030;7.110;2023-03-05T07:45:43;4.35;;;0.90;;
41653;SDS011;30790;52.030;7.110;2023-03-05T07:48:14;63.47;;;20.27;;
41653;SDS011;30790;52.030;7.110;2023-03-05T07:50:41;33.28;;;13.80;;
41653;SDS011;30790;52.030;7.110;2023-03-05T07:53:07;29.85;;;9.48;;
41653;SDS011;30790;52.030;7.110;2023-03-05T07:55:33;28.33;;;7.80;;
41653;SDS011;30790;52.030;7.110;2023-03-05T07:57:59;17.38;;;6.68;;
41653;SDS011;30790;52.030;7.110;2023-03-05T08:00:24;21.55;;;7.88;;
41653;SDS011;30790;52.030;7.110;2023-03-05T08:02:49;23.90;;;7.68;;
41653;SDS011;30790;52.030;7.110;2023-03-05T08:05:15;21.30;;;6.97;;
41653;SDS011;30790;52.030;7.110;2023-03-05T08:07:40;21.30;;;7.07;;
41653;SDS011;30790;52.030;7.110;2023-03-05T08:10:06;22.13;;;6.70;;
41653;SDS011;30790;52.030;7.110;2023-03-05T08:12:32;17.33;;;6.15;;
41653;SDS011;30790;52.030;7.110;2023-03-05T08:14:58;19.80;;;5.75;;
41653;SDS011;30790;52.030;7.110;2023-03-05T08:17:23;21.20;;;6.40;;
41653;SDS011;30790;52.030;7.110;2023-03-05T08:19:48;23.10;;;6.53;;
41653;SDS011;30790;52.030;7.110;2023-03-05T08:22:13;15.43;;;5.67;;
41653;SDS011;30790;52.030;7.110;2023-03-05T08:24:41;17.70;;;6.30;;
41653;SDS011;30790;52.030;7.110;2023-03-05T08:27:07;17.77;;;6.40;;
41653;SDS011;30790;52.030;7.110;2023-03-05T08:29:32;18.02;;;6.03;;
41653;SDS011;30790;52.030;7.110;2023-03-05T08:31:57;19.58;;;5.38;;
41653;SDS011;30790;52.030;7.110;2023-03-05T08:34:23;20.20;;;5.50;;
41653;SDS011;30790;52.030;7.110;2023-03-05T08:36:48;17.17;;;6.25;;
41653;SDS011;30790;52.030;7.110;2023-03-05T08:39:14;19.95;;;5.50;;
41653;SDS011;30790;52.030;7.110;2023-03-05T08:41:39;18.30;;;5.80;;
41653;SDS011;30790;52.030;7.110;2023-03-05T08:44:05;25.30;;;5.63;;
41653;SDS011;30790;52.030;7.110;2023-03-05T08:46:30;17.30;;;5.95;;
41653;SDS011;30790;52.030;7.110;2023-03-05T08:48:55;11.85;;;5.18;;
41653;SDS011;30790;52.030;7.110;2023-03-05T08:51:21;17.20;;;6.28;;
41653;SDS011;30790;52.030;7.110;2023-03-05T08:53:51;18.27;;;5.70;;
41653;SDS011;30790;52.030;7.110;2023-03-05T08:56:18;41.13;;;12.48;;
41653;SDS011;30790;52.030;7.110;2023-03-05T08:58:44;32.50;;;10.73;;
41653;SDS011;30790;52.030;7.110;2023-03-05T09:01:11;26.52;;;9.07;;
41653;SDS011;30790;52.030;7.110;2023-03-05T09:03:37;36.58;;;9.63;;
41653;SDS011;30790;52.030;7.110;2023-03-05T09:06:04;29.05;;;8.18;;
41653;SDS011;30790;52.030;7.110;2023-03-05T09:08:31;28.30;;;9.18;;
41653;SDS011;30790;52.030;7.110;2023-03-05T09:10:57;25.77;;;8.85;;
41653;SDS011;30790;52.030;7.110;2023-03-05T09:13:22;23.17;;;8.63;;
41653;SDS011;30790;52.030;7.110;2023-03-05T09:15:57;27.35;;;8.85;;
41653;SDS011;30790;52.030;7.110;2023-03-05T09:18:27;27.92;;;8.00;;
41653;SDS011;30790;52.030;7.110;2023-03-05T09:20:53;19.25;;;7.53;;
41653;SDS011;30790;52.030;7.110;2023-03-05T09:23:19;25.67;;;7.75;;
41653;SDS011;30790;52.030;7.110;2023-03-05T09:25:45;20.20;;;7.18;;
41653;SDS011;30790;52.030;7.110;2023-03-05T09:28:10;20.88;;;6.68;;
41653;SDS011;30790;52.030;7.110;2023-03-05T09:30:36;17.45;;;6.20;;
41653;SDS011;30790;52.030;7.110;2023-03-05T09:33:01;19.08;;;6.75;;
41653;SDS011;30790;52.030;7.110;2023-03-05T09:35:28;20.52;;;6.68;;
41653;SDS011;30790;52.030;7.110;2023-03-05T09:37:53;15.05;;;6.00;;
41653;SDS011;30790;52.030;7.110;2023-03-05T09:40:19;18.85;;;6.38;;
41653;SDS011;30790;52.030;7.110;2023-03-05T09:45:43;18.77;;;5.85;;
41653;SDS011;30790;52.030;7.110;2023-03-05T09:48:23;13.52;;;5.38;;
41653;SDS011;30790;52.030;7.110;2023-03-05T09:50:53;13.95;;;4.93;;
41653;SDS011;30790;52.030;7.110;2023-03-05T09:56:34;12.93;;;4.88;;
41653;SDS011;30790;52.030;7.110;2023-03-05T09:59:12;14.90;;;4.55;;
41653;SDS011;30790;52.030;7.110;2023-03-05T10:01:43;16.13;;;4.85;;
41653;SDS011;30790;52.030;7.110;2023-03-05T10:04:13;11.45;;;4.38;;
41653;SDS011;30790;52.030;7.110;2023-03-05T10:12:25;11.05;;;5.13;;
41653;SDS011;30790;52.030;7.110;2023-03-05T10:14:59;14.02;;;4.35;;
41653;SDS011;30790;52.030;7.110;2023-03-05T10:20:01;16.48;;;4.70;;
41653;SDS011;30790;52.030;7.110;2023-03-05T10:22:41;9.05;;;4.18;;
41653;SDS011;30790;52.030;7.110;2023-03-05T10:28:53;16.20;;;4.80;;
41653;SDS011;30790;52.030;7.110;2023-03-05T10:36:31;18.15;;;4.55;;
41653;SDS011;30790;52.030;7.110;2023-03-05T10:43:04;16.23;;;4.80;;
41653;SDS011;30790;52.030;7.110;2023-03-05T10:45:16;14.30;;;4.13;;
41653;SDS011;30790;52.030;7.110;2023-03-05T10:47:48;24.58;;;5.68;;
41653;SDS011;30790;52.030;7.110;2023-03-05T10:50:27;21.02;;;5.05;;
41653;SDS011;30790;52.030;7.110;2023-03-05T10:53:06;21.27;;;5.72;;
41653;SDS011;30790;52.030;7.110;2023-03-05T10:55:40;22.58;;;5.95;;
41653;SDS011;30790;52.030;7.110;2023-03-05T10:58:13;27.38;;;9.00;;
41653;SDS011;30790;52.030;7.110;2023-03-05T11:00:40;26.70;;;7.55;;
41653;SDS011;30790;52.030;7.110;2023-03-05T11:03:22;31.60;;;6.80;;
41653;SDS011;30790;52.030;7.110;2023-03-05T11:05:50;29.02;;;6.68;;
41653;SDS011;30790;52.030;7.110;2023-03-05T11:11:24;25.95;;;6.60;;
41653;SDS011;30790;52.030;7.110;2023-03-05T11:13:52;20.60;;;6.35;;
41653;SDS011;30790;52.030;7.110;2023-03-05T11:16:22;17.77;;;5.85;;
41653;SDS011;30790;52.030;7.110;2023-03-05T11:18:49;25.23;;;5.40;;
41653;SDS011;30790;52.030;7.110;2023-03-05T11:21:35;27.45;;;6.30;;
41653;SDS011;30790;52.030;7.110;2023-03-05T11:24:13;20.05;;;5.80;;
41653;SDS011;30790;52.030;7.110;2023-03-05T11:26:48;21.77;;;5.10;;
41653;SDS011;30790;52.030;7.110;2023-03-05T11:29:17;18.63;;;5.47;;
41653;SDS011;30790;52.030;7.110;2023-03-05T11:31:47;22.42;;;4.50;;
41653;SDS011;30790;52.030;7.110;2023-03-05T11:36:42;23.67;;;5.38;;
41653;SDS011;30790;52.030;7.110;2023-03-05T11:39:25;34.45;;;7.22;;
41653;SDS011;30790;52.030;7.110;2023-03-05T11:44:44;27.77;;;7.40;;
41653;SDS011;30790;52.030;7.110;2023-03-05T11:47:16;33.35;;;7.90;;
41653;SDS011;30790;52.030;7.110;2023-03-05T11:49:49;35.70;;;9.15;;
41653;SDS011;30790;52.030;7.110;2023-03-05T11:52:20;27.08;;;7.88;;
41653;SDS011;30790;52.030;7.110;2023-03-05T11:54:55;45.75;;;9.20;;
41653;SDS011;30790;52.030;7.110;2023-03-05T11:57:22;32.42;;;8.13;;
41653;SDS011;30790;52.030;7.110;2023-03-05T11:59:48;30.00;;;7.72;;
41653;SDS011;30790;52.030;7.110;2023-03-05T12:02:18;24.40;;;6.93;;
41653;SDS011;30790;52.030;7.110;2023-03-05T12:04:46;38.42;;;8.23;;
41653;SDS011;30790;52.030;7.110;2023-03-05T12:07:14;48.72;;;12.45;;
41653;SDS011;30790;52.030;7.110;2023-03-05T12:09:45;47.92;;;14.95;;
41653;SDS011;30790;52.030;7.110;2023-03-05T12:12:26;56.15;;;16.80;;
41653;SDS011;30790;52.030;7.110;2023-03-05T12:20:13;55.35;;;18.35;;
41653;SDS011;30790;52.030;7.110;2023-03-05T12:22:49;61.65;;;19.17;;
41653;SDS011;30790;52.030;7.110;2023-03-05T12:25:33;64.75;;;19.65;;
41653;SDS011;30790;52.030;7.110;2023-03-05T12:31:01;68.85;;;18.65;;
41653;SDS011;30790;52.030;7.110;2023-03-05T12:38:49;55.22;;;18.02;;
41653;SDS011;30790;52.030;7.110;2023-03-05T12:51:45;56.03;;;16.70;;
41653;SDS011;30790;52.030;7.110;2023-03-05T12:56:54;55.85;;;17.77;;
41653;SDS011;30790;52.030;7.110;2023-03-05T12:59:22;43.78;;;16.85;;
41653;SDS011;30790;52.030;7.110;2023-03-05T13:01:57;48.72;;;16.48;;
41653;SDS011;30790;52.030;7.110;2023-03-05T13:04:28;47.20;;;17.25;;
41653;SDS011;30790;52.030;7.110;2023-03-05T13:07:03;50.20;;;16.98;;
41653;SDS011;30790;52.030;7.110;2023-03-05T13:09:31;49.42;;;17.95;;
41653;SDS011;30790;52.030;7.110;2023-03-05T13:12:00;55.55;;;16.40;;
41653;SDS011;30790;52.030;7.110;2023-03-05T13:14:42;47.67;;;17.17;;
41653;SDS011;30790;52.030;7.110;2023-03-05T13:19:55;47.20;;;17.65;;
41653;SDS011;30790;52.030;7.110;2023-03-05T13:22:21;49.15;;;16.33;;
41653;SDS011;30790;52.030;7.110;2023-03-05T13:24:48;46.28;;;15.32;;
41653;SDS011;30790;52.030;7.110;2023-03-05T13:27:29;47.05;;;16.35;;
41653;SDS011;30790;52.030;7.110;2023-03-05T13:29:56;49.45;;;18.50;;
41653;SDS011;30790;52.030;7.110;2023-03-05T13:32:25;45.72;;;17.52;;
41653;SDS011;30790;52.030;7.110;2023-03-05T13:34:53;50.63;;;17.20;;
41653;SDS011;30790;52.030;7.110;2023-03-05T13:37:25;51.30;;;16.55;;
41653;SDS011;30790;52.030;7.110;2023-03-05T13:39:57;57.83;;;16.35;;
41653;SDS011;30790;52.030;7.110;2023-03-05T13:42:29;72.30;;;24.25;;
41653;SDS011;30790;52.030;7.110;2023-03-05T13:45:01;64.50;;;23.30;;
41653;SDS011;30790;52.030;7.110;2023-03-05T13:47:28;58.50;;;23.20;;
41653;SDS011;30790;52.030;7.110;2023-03-05T13:49:59;74.63;;;25.95;;
41653;SDS011;30790;52.030;7.110;2023-03-05T13:52:27;64.22;;;25.02;;
41653;SDS011;30790;52.030;7.110;2023-03-05T13:54:55;86.85;;;25.48;;
41653;SDS011;30790;52.030;7.110;2023-03-05T13:57:35;70.45;;;24.75;;
41653;SDS011;30790;52.030;7.110;2023-03-05T14:00:06;64.30;;;24.35;;
41653;SDS011;30790;52.030;7.110;2023-03-05T14:02:52;75.93;;;25.67;;
41653;SDS011;30790;52.030;7.110;2023-03-05T14:05:19;71.47;;;25.90;;
41653;SDS011;30790;52.030;7.110;2023-03-05T14:07:46;73.72;;;26.02;;
41653;SDS011;30790;52.030;7.110;2023-03-05T14:10:47;63.58;;;24.52;;
41653;SDS011;30790;52.030;7.110;2023-03-05T14:13:40;61.05;;;24.50;;
41653;SDS011;30790;52.030;7.110;2023-03-05T14:18:28;66.47;;;23.95;;
41653;SDS011;30790;52.030;7.110;2023-03-05T14:21:03;66.55;;;24.75;;
41653;SDS011;30790;52.030;7.110;2023-03-05T14:28:53;79.47;;;26.55;;
41653;SDS011;30790;52.030;7.110;2023-03-05T14:31:22;59.97;;;23.30;;
41653;SDS011;30790;52.030;7.110;2023-03-05T14:33:50;70.25;;;24.92;;
41653;SDS011;30790;52.030;7.110;2023-03-05T14:36:21;79.78;;;25.65;;
41653;SDS011;30790;52.030;7.110;2023-03-05T14:38:48;74.53;;;26.55;;
41653;SDS011;30790;52.030;7.110;2023-03-05T14:43:56;74.88;;;25.55;;
41653;SDS011;30790;52.030;7.110;2023-03-05T14:46:21;75.90;;;26.23;;
41653;SDS011;30790;52.030;7.110;2023-03-05T14:48:47;68.43;;;25.17;;
41653;SDS011;30790;52.030;7.110;2023-03-05T14:51:12;73.30;;;25.05;;
41653;SDS011;30790;52.030;7.110;2023-03-05T14:53:39;87.43;;;25.25;;
41653;SDS011;30790;52.030;7.110;2023-03-05T14:56:18;65.25;;;25.05;;
41653;SDS011;30790;52.030;7.110;2023-03-05T14:58:47;69.30;;;24.08;;
41653;SDS011;30790;52.030;7.110;2023-03-05T15:01:12;84.22;;;25.90;;
41653;SDS011;30790;52.030;7.110;2023-03-05T15:03:38;71.18;;;25.75;;
41653;SDS011;30790;52.030;7.110;2023-03-05T15:06:05;74.80;;;25.52;;
41653;SDS011;30790;52.030;7.110;2023-03-05T15:08:37;68.43;;;24.33;;
41653;SDS011;30790;52.030;7.110;2023-03-05T15:11:02;74.18;;;25.27;;
41653;SDS011;30790;52.030;7.110;2023-03-05T15:13:28;88.28;;;26.40;;
41653;SDS011;30790;52.030;7.110;2023-03-05T15:15:53;68.32;;;25.20;;
41653;SDS011;30790;52.030;7.110;2023-03-05T15:18:20;71.93;;;23.42;;
41653;SDS011;30790;52.030;7.110;2023-03-05T15:20:46;67.25;;;24.33;;
41653;SDS011;30790;52.030;7.110;2023-03-05T15:23:19;70.38;;;23.58;;
41653;SDS011;30790;52.030;7.110;2023-03-05T15:25:44;61.75;;;23.95;;
41653;SDS011;30790;52.030;7.110;2023-03-05T15:28:09;73.55;;;22.60;;
41653;SDS011;30790;52.030;7.110;2023-03-05T15:30:39;66.20;;;22.75;;
41653;SDS011;30790;52.030;7.110;2023-03-05T15:33:09;59.25;;;22.70;;
41653;SDS011;30790;52.030;7.110;2023-03-05T15:35:35;69.57;;;24.17;;
41653;SDS011;30790;52.030;7.110;2023-03-05T15:38:01;79.28;;;23.02;;
41653;SDS011;30790;52.030;7.110;2023-03-05T15:40:26;65.85;;;22.63;;
41653;SDS011;30790;52.030;7.110;2023-03-05T15:42:53;71.55;;;22.17;;
41653;SDS011;30790;52.030;7.110;2023-03-05T15:45:19;58.95;;;22.50;;
41653;SDS011;30790;52.030;7.110;2023-03-05T15:47:47;52.83;;;21.73;;
41653;SDS011;30790;52.030;7.110;2023-03-05T15:50:13;60.70;;;23.77;;
41653;SDS011;30790;52.030;7.110;2023-03-05T15:52:38;61.90;;;21.25;;
41653;SDS011;30790;52.030;7.110;2023-03-05T15:55:03;49.85;;;20.23;;
41653;SDS011;30790;52.030;7.110;2023-03-05T15:57:34;59.67;;;22.08;;
41653;SDS011;30790;52.030;7.110;2023-03-05T16:00:00;58.20;;;21.38;;
41653;SDS011;30790;52.030;7.110;2023-03-05T16:02:31;60.03;;;21.13;;
41653;SDS011;30790;52.030;7.110;2023-03-05T16:04:56;52.97;;;22.02;;